Time;durP1;ratioP1;P1;durP2;ratioP2;P2;SDS_P1;SDS_P2;PMS_P1;PMS_P2;Temp;Humidity;BMP_temperature;BMP_pressure;BME280_temperature;BME280_humidity;BME280_pressure;Samples;Min_cycle;Max_cycle;Signal;HPM_P1;HPM_P2
2023/04/30 00:01:32;;;;;;;49.83;34.47;;;;;;;16.56;50.54;93458.31;4878293;29;20068;-90
2023/04/30 00:03:58;;;;;;;47.13;34.13;;;;;;;16.54;50.90;93458.06;4907818;29;20454;-91
2023/04/30 00:06:23;;;;;;;48.47;33.95;;;;;;;16.60;50.53;93466.25;4905778;29;20616;-90
2023/04/30 00:08:49;;;;;;;47.42;33.10;;;;;;;16.54;50.56;93463.53;4906632;29;20048;-90
2023/04/30 00:11:14;;;;;;;48.70;32.97;;;;;;;16.54;50.67;93463.53;4910041;29;20036;-90
2023/04/30 00:13:41;;;;;;;51.25;32.97;;;;;;;16.51;50.46;93453.59;4929015;29;20062;-89
2023/04/30 00:16:07;;;;;;;46.83;32.33;;;;;;;16.52;50.84;93459.81;4920405;29;20410;-88
2023/04/30 00:18:32;;;;;;;48.03;33.25;;;;;;;16.51;50.89;93453.59;4900357;29;20046;-90
2023/04/30 00:20:57;;;;;;;50.53;33.08;;;;;;;16.55;50.46;93462.28;4905096;29;20078;-89
2023/04/30 00:23:23;;;;;;;52.83;33.53;;;;;;;16.55;50.64;93456.81;4908972;29;20047;-90
2023/04/30 00:25:48;;;;;;;45.72;32.92;;;;;;;16.54;50.64;93460.06;4933335;29;20040;-88
2023/04/30 00:28:14;;;;;;;47.95;32.55;;;;;;;16.52;50.86;93462.53;4914694;29;20409;-88
2023/04/30 00:30:39;;;;;;;45.50;30.95;;;;;;;16.53;50.79;93455.84;4948663;28;20047;-89
2023/04/30 00:33:04;;;;;;;45.83;32.38;;;;;;;16.54;50.79;93457.31;4931950;29;20051;-88
2023/04/30 00:35:30;;;;;;;46.78;31.42;;;;;;;16.53;50.74;93455.84;4908834;29;20046;-90
2023/04/30 00:37:55;;;;;;;44.17;30.17;;;;;;;16.49;50.74;93458.06;4913326;29;20044;-88
2023/04/30 00:40:21;;;;;;;44.53;31.08;;;;;;;16.47;50.77;93458.56;4906366;29;20050;-91
2023/04/30 00:42:47;;;;;;;44.03;32.10;;;;;;;16.50;50.67;93459.56;4936358;29;20047;-89
2023/04/30 00:45:13;;;;;;;43.75;31.55;;;;;;;16.51;50.99;93448.16;4918016;29;20055;-88
2023/04/30 00:47:38;;;;;;;48.70;32.13;;;;;;;16.50;50.90;93448.63;4936149;29;20047;-90
2023/04/30 00:50:04;;;;;;;43.42;30.45;;;;;;;16.52;50.38;93457.06;4901909;29;20049;-87
2023/04/30 00:52:29;;;;;;;39.58;29.83;;;;;;;16.52;50.23;93454.34;4909941;29;20048;-88
2023/04/30 00:54:55;;;;;;;44.15;31.10;;;;;;;16.48;50.73;93460.03;4912688;29;20031;-88
2023/04/30 00:57:20;;;;;;;44.95;30.73;;;;;;;16.53;50.57;93458.56;4933293;29;20047;-88
2023/04/30 00:59:46;;;;;;;35.92;27.35;;;;;;;16.51;51.11;93459.06;4901938;29;20040;-90
2023/04/30 01:02:12;;;;;;;41.42;30.00;;;;;;;16.54;50.65;93463.53;4917774;29;20040;-89
2023/04/30 01:04:37;;;;;;;40.10;28.90;;;;;;;16.52;50.20;93459.81;4920171;29;20497;-89
2023/04/30 01:07:03;;;;;;;41.60;29.90;;;;;;;16.49;50.39;93461.53;4911963;29;20108;-89
2023/04/30 01:09:28;;;;;;;39.65;29.10;;;;;;;16.54;50.65;93465.50;4916863;29;20051;-90
2023/04/30 01:12:06;;;;;;;40.33;28.58;;;;;;;16.52;50.72;93468.72;4933301;29;20040;-89
2023/04/30 01:14:34;;;;;;;43.42;29.60;;;;;;;16.51;50.61;93469.97;4939981;29;20039;-90
2023/04/30 01:17:40;;;;;;;45.08;29.80;;;;;;;16.50;50.55;93467.75;4950750;28;20059;-90
2023/04/30 01:20:06;;;;;;;44.13;30.25;;;;;;;16.50;50.65;93468.47;4932607;29;20046;-89
2023/04/30 01:22:44;;;;;;;39.13;28.65;;;;;;;16.49;50.32;93474.44;4928780;29;20505;-89
2023/04/30 01:25:19;;;;;;;40.72;27.55;;;;;;;16.48;50.50;93470.22;4930725;29;20122;-89
2023/04/30 01:28:04;;;;;;;40.85;28.30;;;;;;;16.50;50.56;93468.47;4951642;28;20051;-90
2023/04/30 01:30:33;;;;;;;41.80;28.52;;;;;;;16.51;50.42;93469.22;4935568;29;20049;-89
2023/04/30 01:32:58;;;;;;;41.47;27.30;;;;;;;16.48;50.49;93462.78;4935157;29;20047;-90
2023/04/30 01:35:40;;;;;;;40.50;27.65;;;;;;;16.45;50.76;93467.25;4918311;29;20046;-90
2023/04/30 01:38:21;;;;;;;41.95;27.70;;;;;;;16.49;50.83;93477.91;4925824;29;20040;-89
2023/04/30 01:40:46;;;;;;;40.60;27.35;;;;;;;16.50;50.93;93476.66;4916233;29;20043;-87
2023/04/30 01:43:24;;;;;;;40.30;27.65;;;;;;;16.48;50.80;93479.16;4921743;28;20157;-88
2023/04/30 01:46:04;;;;;;;37.35;27.13;;;;;;;16.47;50.50;93472.19;4920491;29;20101;-89
2023/04/30 01:48:42;;;;;;;39.30;27.17;;;;;;;16.50;50.33;93484.13;4919966;29;20110;-90
2023/04/30 01:51:15;;;;;;;41.08;27.20;;;;;;;16.48;50.47;93483.84;4890992;29;20036;-88
2023/04/30 01:53:42;;;;;;;37.17;27.08;;;;;;;16.47;50.56;93488.56;4901054;29;20035;-90
2023/04/30 01:56:15;;;;;;;36.92;26.63;;;;;;;16.47;50.65;93491.31;4932623;29;20031;-89
2023/04/30 01:58:40;;;;;;;34.85;27.00;;;;;;;16.48;50.48;93489.31;4934893;29;20054;-89
2023/04/30 02:01:06;;;;;;;38.95;27.83;;;;;;;16.46;50.52;93493.28;4914369;29;20048;-90
2023/04/30 02:03:31;;;;;;;35.92;24.67;;;;;;;16.46;50.61;93496.00;4897346;29;20051;-89
2023/04/30 02:05:58;;;;;;;36.38;27.30;;;;;;;16.46;50.81;93487.81;4926582;29;20062;-89
2023/04/30 02:08:23;;;;;;;38.08;26.77;;;;;;;16.50;50.40;93489.56;4917162;29;20067;-88
2023/04/30 02:10:48;;;;;;;34.92;26.60;;;;;;;16.49;50.35;93488.81;4910105;29;20039;-89
2023/04/30 02:13:14;;;;;;;34.42;26.00;;;;;;;16.48;50.39;93492.03;4915249;29;20044;-90
2023/04/30 02:15:39;;;;;;;36.22;25.48;;;;;;;16.50;50.33;93497.75;4915903;29;20035;-89
2023/04/30 02:18:05;;;;;;;39.40;27.20;;;;;;;16.49;50.67;93499.00;4915349;29;20418;-89
2023/04/30 02:20:30;;;;;;;36.35;25.80;;;;;;;16.47;50.31;93504.94;4918603;29;20043;-90
2023/04/30 02:22:56;;;;;;;34.30;25.30;;;;;;;16.44;50.43;93503.97;4918522;29;20059;-89
2023/04/30 02:25:21;;;;;;;31.40;24.00;;;;;;;16.46;50.52;93519.81;4914096;29;20051;-89
2023/04/30 02:27:46;;;;;;;38.28;25.83;;;;;;;16.46;50.62;93517.84;4918896;29;20391;-90
2023/04/30 02:30:12;;;;;;;37.85;25.88;;;;;;;16.46;50.57;93512.38;4950256;28;20465;-90
2023/04/30 02:32:37;;;;;;;32.13;24.48;;;;;;;16.43;50.79;93521.59;4934296;29;20047;-88
2023/04/30 02:35:03;;;;;;;34.75;25.88;;;;;;;16.44;50.56;93531.25;4934061;29;20043;-90
2023/04/30 02:37:28;;;;;;;34.28;25.15;;;;;;;16.48;50.44;93524.78;4928784;29;20049;-89
2023/04/30 02:39:54;;;;;;;31.75;23.67;;;;;;;16.44;50.67;93528.53;4927135;29;20040;-90
2023/04/30 02:42:19;;;;;;;36.17;24.42;;;;;;;16.50;50.27;93528.50;4930460;29;20043;-86
2023/04/30 02:44:45;;;;;;;36.72;24.65;;;;;;;16.45;50.44;93529.28;4930688;29;20047;-90
2023/04/30 02:47:10;;;;;;;33.60;24.05;;;;;;;16.50;50.85;93536.69;4917414;29;20051;-89
2023/04/30 02:49:35;;;;;;;37.90;24.58;;;;;;;16.47;50.24;93532.22;4912736;29;20049;-90
2023/04/30 02:52:01;;;;;;;31.83;22.95;;;;;;;16.50;50.22;93533.22;4896615;29;20044;-90
2023/04/30 02:54:26;;;;;;;30.48;23.42;;;;;;;16.52;50.34;93538.94;4907599;29;20048;-88
2023/04/30 02:56:52;;;;;;;34.22;23.60;;;;;;;16.50;50.04;93541.41;4916239;29;20043;-89
2023/04/30 02:59:17;;;;;;;30.80;23.05;;;;;;;16.44;50.46;93530.50;4933159;29;20366;-89
2023/04/30 03:01:43;;;;;;;33.17;23.73;;;;;;;16.45;50.33;93535.44;4915318;29;20699;-89
2023/04/30 03:04:08;;;;;;;32.22;22.88;;;;;;;16.43;50.12;93539.94;4895446;29;20051;-89
2023/04/30 03:06:33;;;;;;;32.72;21.92;;;;;;;16.53;50.58;93532.97;4941314;29;20094;-91
2023/04/30 03:08:59;;;;;;;35.20;21.60;;;;;;;16.48;50.10;93541.16;4909935;29;20039;-90
2023/04/30 03:11:25;;;;;;;32.30;22.45;;;;;;;16.51;50.46;93546.38;4917617;29;20046;-91
2023/04/30 03:13:50;;;;;;;30.77;22.27;;;;;;;16.51;50.30;93554.56;4928134;29;20051;-90
2023/04/30 03:16:17;;;;;;;29.52;21.65;;;;;;;16.51;49.86;93546.38;4925071;29;20054;-89
2023/04/30 03:18:42;;;;;;;31.42;21.33;;;;;;;16.51;50.33;93543.66;4934158;29;20054;-89
2023/04/30 03:21:08;;;;;;;31.85;22.15;;;;;;;16.52;50.39;93544.41;4933087;29;20039;-89
2023/04/30 03:23:33;;;;;;;31.73;22.60;;;;;;;16.47;50.26;93543.16;4934034;29;20053;-89
2023/04/30 03:25:59;;;;;;;27.40;21.88;;;;;;;16.46;50.48;93549.84;4929542;29;20059;-89
2023/04/30 03:28:24;;;;;;;31.90;21.70;;;;;;;16.45;50.49;93549.09;4917478;29;20402;-90
2023/04/30 03:30:50;;;;;;;26.92;20.90;;;;;;;16.42;50.59;93555.56;4933389;29;20043;-89
2023/04/30 03:33:15;;;;;;;31.40;21.40;;;;;;;16.47;50.46;93554.06;4933052;29;20141;-90
2023/04/30 03:35:41;;;;;;;32.00;22.58;;;;;;;16.45;50.51;93556.56;4933860;29;20043;-90
2023/04/30 03:38:06;;;;;;;27.90;22.08;;;;;;;16.43;50.60;93543.41;4909604;29;20055;-90
2023/04/30 03:40:31;;;;;;;27.85;21.33;;;;;;;16.43;50.27;93545.41;4917443;29;20300;-88
2023/04/30 03:42:57;;;;;;;29.48;20.55;;;;;;;16.40;50.57;93555.31;4951338;29;20050;-87
2023/04/30 03:45:22;;;;;;;26.65;20.23;;;;;;;16.46;50.17;93552.56;4914108;29;20102;-90
2023/04/30 03:47:48;;;;;;;28.85;21.15;;;;;;;16.48;50.12;93552.81;4917946;29;20051;-90
2023/04/30 03:50:14;;;;;;;31.58;20.92;;;;;;;16.45;50.46;93548.38;4906781;29;20046;-90
2023/04/30 03:52:39;;;;;;;31.33;20.95;;;;;;;16.45;50.30;93545.66;4900249;29;20446;-90
2023/04/30 03:55:05;;;;;;;26.83;19.88;;;;;;;16.45;50.57;93551.09;4912530;29;20102;-90
2023/04/30 03:57:31;;;;;;;27.88;20.55;;;;;;;16.40;50.20;93555.31;4917014;29;20035;-89
2023/04/30 03:59:57;;;;;;;26.95;20.10;;;;;;;16.41;50.34;93556.06;4916934;29;20105;-90
2023/04/30 04:02:22;;;;;;;30.17;22.02;;;;;;;16.40;50.60;93557.28;4908693;29;20050;-89
2023/04/30 04:04:48;;;;;;;26.80;20.23;;;;;;;16.39;50.47;93551.09;4898356;29;20465;-90
2023/04/30 04:07:14;;;;;;;25.42;19.45;;;;;;;16.39;50.44;93553.81;4946525;29;20058;-90
2023/04/30 04:09:39;;;;;;;29.58;20.77;;;;;;;16.41;50.33;93562.25;4924121;29;20051;-90
2023/04/30 04:12:05;;;;;;;25.75;19.30;;;;;;;16.41;50.14;93564.25;4932653;29;20501;-90
2023/04/30 04:14:30;;;;;;;27.90;20.38;;;;;;;16.40;50.28;93557.28;4907540;29;20126;-89
2023/04/30 04:16:56;;;;;;;32.38;20.52;;;;;;;16.40;50.42;93562.75;4895071;29;20091;-89
2023/04/30 04:19:22;;;;;;;28.35;19.00;;;;;;;16.40;50.45;93560.78;4912416;29;20074;-90
2023/04/30 04:21:48;;;;;;;24.23;19.25;;;;;;;16.46;50.50;93550.59;4897639;29;20299;-90
2023/04/30 04:24:13;;;;;;;26.90;19.52;;;;;;;16.45;50.48;93562.03;4913057;28;20056;-89
2023/04/30 04:26:38;;;;;;;24.33;19.35;;;;;;;16.43;50.08;93565.25;4905210;29;20047;-90
2023/04/30 04:29:04;;;;;;;25.33;19.00;;;;;;;16.43;50.08;93567.22;4915726;29;20063;-87
2023/04/30 04:31:30;;;;;;;23.73;19.15;;;;;;;16.45;50.18;93573.66;4932239;29;20409;-89
2023/04/30 04:33:59;;;;;;;25.13;19.67;;;;;;;16.41;50.44;93580.63;4913961;29;20043;-89
2023/04/30 04:36:27;;;;;;;24.30;18.52;;;;;;;16.41;50.28;93580.63;4930974;29;20557;-90
2023/04/30 04:38:54;;;;;;;25.50;18.52;;;;;;;16.40;50.34;93584.56;4923189;29;20517;-89
2023/04/30 04:41:20;;;;;;;24.35;18.60;;;;;;;16.41;50.39;93586.06;4914713;29;20072;-89
2023/04/30 04:43:45;;;;;;;27.98;19.92;;;;;;;16.44;50.33;93587.81;4916148;29;20486;-90
2023/04/30 04:46:11;;;;;;;26.25;20.17;;;;;;;16.39;50.18;93594.75;4931097;29;20066;-86
2023/04/30 04:48:36;;;;;;;26.95;18.90;;;;;;;16.37;50.63;93580.84;4916748;29;20039;-89
2023/04/30 04:51:02;;;;;;;26.27;18.35;;;;;;;16.37;50.28;93588.28;4936637;28;20032;-89
2023/04/30 04:53:28;;;;;;;25.65;19.20;;;;;;;16.40;50.38;93584.56;4892700;29;20044;-88
2023/04/30 04:55:54;;;;;;;24.00;17.95;;;;;;;16.37;50.34;93585.56;4916284;29;20060;-91
2023/04/30 04:58:19;;;;;;;24.70;18.85;;;;;;;16.40;50.47;93587.31;4912952;29;20055;-89
2023/04/30 05:00:47;;;;;;;23.60;18.20;;;;;;;16.39;50.39;93586.56;4907236;29;20107;-89
2023/04/30 05:03:13;;;;;;;28.23;19.05;;;;;;;16.41;50.16;93592.28;4895963;29;20040;-87
2023/04/30 05:05:38;;;;;;;20.30;16.83;;;;;;;16.44;50.13;93591.28;4908160;29;20044;-89
2023/04/30 05:08:04;;;;;;;26.13;18.15;;;;;;;16.40;50.08;93590.78;4927500;29;20047;-87
2023/04/30 05:10:29;;;;;;;21.65;17.60;;;;;;;16.43;50.02;93595.25;4910995;29;20051;-87
2023/04/30 05:12:55;;;;;;;23.13;17.25;;;;;;;16.44;50.31;93596.00;4916282;29;20067;-89
2023/04/30 05:15:20;;;;;;;22.45;17.80;;;;;;;16.40;49.98;93606.41;4918933;29;20055;-89
2023/04/30 05:17:46;;;;;;;25.65;18.02;;;;;;;16.43;50.10;93603.44;4930353;29;20042;-90
2023/04/30 05:20:12;;;;;;;25.85;17.92;;;;;;;16.44;49.98;93607.66;4911663;29;20046;-89
2023/04/30 05:22:37;;;;;;;25.13;17.98;;;;;;;16.42;50.17;93610.13;4932168;29;20074;-89
2023/04/30 05:25:03;;;;;;;23.45;18.27;;;;;;;16.43;50.54;93605.41;4916422;28;20046;-89
2023/04/30 05:27:28;;;;;;;23.75;17.52;;;;;;;16.46;50.07;93605.16;4922672;29;20055;-89
2023/04/30 05:29:54;;;;;;;25.15;17.40;;;;;;;16.43;50.18;93616.34;4931188;29;20063;-87
2023/04/30 05:32:21;;;;;;;23.08;16.92;;;;;;;16.44;50.22;93624.03;4935048;29;20050;-89
2023/04/30 05:34:46;;;;;;;27.02;17.48;;;;;;;16.44;50.43;93617.81;4919778;29;20047;-90
2023/04/30 05:37:13;;;;;;;21.92;17.52;;;;;;;16.44;50.22;93617.81;4929369;29;20091;-87
2023/04/30 05:39:38;;;;;;;23.50;18.15;;;;;;;16.45;50.03;93608.41;4908136;29;20035;-89
2023/04/30 05:42:04;;;;;;;24.85;17.02;;;;;;;16.48;50.22;93609.38;4915944;29;20058;-89
2023/04/30 05:44:29;;;;;;;23.92;16.60;;;;;;;16.44;49.77;93613.13;4915622;29;20043;-89
2023/04/30 05:46:55;;;;;;;23.77;16.98;;;;;;;16.45;49.91;93619.31;4916579;29;20047;-87
2023/04/30 05:49:20;;;;;;;23.50;16.27;;;;;;;16.46;49.79;93612.59;4900005;29;20047;-88
2023/04/30 05:51:46;;;;;;;21.00;15.75;;;;;;;16.46;50.35;93616.06;4932016;29;20031;-89
2023/04/30 05:54:11;;;;;;;23.00;15.98;;;;;;;16.50;50.01;93615.09;4916101;28;20366;-89
2023/04/30 05:56:36;;;;;;;19.98;15.10;;;;;;;16.52;49.77;93618.06;4900253;29;20498;-87
2023/04/30 05:59:02;;;;;;;17.27;14.80;;;;;;;16.60;49.74;93608.19;4947147;28;20035;-87
2023/04/30 06:01:28;;;;;;;19.38;15.80;;;;;;;16.52;49.84;93613.38;4918024;29;20055;-89
2023/04/30 06:03:53;;;;;;;23.13;16.60;;;;;;;16.53;49.80;93611.38;4921554;29;20039;-90
2023/04/30 06:06:19;;;;;;;19.30;14.80;;;;;;;16.58;49.84;93616.09;4881496;29;20557;-90
2023/04/30 06:08:44;;;;;;;18.02;14.75;;;;;;;16.51;49.68;93608.41;4927999;29;20032;-88
2023/04/30 06:11:11;;;;;;;23.10;16.30;;;;;;;16.53;49.82;93612.13;4930729;29;20386;-87
2023/04/30 06:13:36;;;;;;;19.60;15.93;;;;;;;16.50;49.85;93613.09;4934538;29;20043;-89
2023/04/30 06:16:02;;;;;;;17.17;14.20;;;;;;;16.58;49.60;93616.84;4920241;29;20040;-90
2023/04/30 06:18:27;;;;;;;19.83;15.07;;;;;;;16.54;49.78;93619.06;4915150;29;20051;-88
2023/04/30 06:20:53;;;;;;;19.70;15.73;;;;;;;16.56;49.41;93624.78;4899517;29;20040;-89
2023/04/30 06:23:18;;;;;;;22.02;14.73;;;;;;;16.53;49.93;93622.28;4949042;28;20054;-87
2023/04/30 06:25:43;;;;;;;20.05;14.50;;;;;;;16.54;49.89;93623.78;4950528;28;20043;-89
2023/04/30 06:28:09;;;;;;;20.70;15.18;;;;;;;16.51;50.14;93635.69;4932558;29;20043;-90
2023/04/30 06:30:35;;;;;;;19.52;15.30;;;;;;;16.52;49.80;93634.44;4934626;29;20043;-90
2023/04/30 06:33:01;;;;;;;18.50;15.05;;;;;;;16.56;49.83;93634.97;4934343;29;20047;-91
2023/04/30 06:35:26;;;;;;;19.90;14.88;;;;;;;16.50;49.80;93640.41;4933495;29;20062;-87
2023/04/30 06:37:52;;;;;;;18.98;13.90;;;;;;;16.54;49.93;93640.16;4949963;28;20035;-89
2023/04/30 06:40:17;;;;;;;19.35;14.45;;;;;;;16.50;49.51;93642.38;4935745;29;20047;-90
2023/04/30 06:42:43;;;;;;;20.08;15.00;;;;;;;16.52;49.83;93640.66;4914922;29;20118;-90
2023/04/30 06:45:09;;;;;;;18.35;13.77;;;;;;;16.53;49.82;93641.41;4931087;29;20514;-89
2023/04/30 06:47:36;;;;;;;20.67;14.63;;;;;;;16.51;49.70;93652.81;4933914;29;20576;-88
2023/04/30 06:50:02;;;;;;;21.75;14.43;;;;;;;16.52;50.08;93648.84;4918218;29;20050;-89
2023/04/30 06:52:29;;;;;;;19.45;13.90;;;;;;;16.57;50.00;93648.13;4901865;29;20044;-87
2023/04/30 06:54:55;;;;;;;17.58;13.57;;;;;;;16.58;49.47;93649.59;4899726;29;20122;-89
2023/04/30 06:57:20;;;;;;;18.02;14.13;;;;;;;16.59;49.73;93661.25;4932816;29;20058;-89
2023/04/30 06:59:46;;;;;;;16.85;13.20;;;;;;;16.59;49.91;93653.06;4934170;29;20039;-86
2023/04/30 07:02:12;;;;;;;28.85;21.25;;;;;;;16.69;49.49;93654.34;4949496;28;20046;-89
2023/04/30 07:04:37;;;;;;;26.02;18.23;;;;;;;16.60;49.51;93652.59;4918797;29;20394;-91
2023/04/30 07:07:03;;;;;;;20.80;15.93;;;;;;;16.57;49.77;93656.31;4933721;29;20370;-89
2023/04/30 07:09:32;;;;;;;20.33;14.98;;;;;;;16.52;50.05;93656.28;4907627;29;20043;-91
2023/04/30 07:11:58;;;;;;;17.92;13.98;;;;;;;16.53;49.66;93652.31;4934324;29;20043;-91
2023/04/30 07:14:23;;;;;;;19.50;14.00;;;;;;;16.56;49.81;93652.06;4950129;28;20050;-91
2023/04/30 07:16:49;;;;;;;17.88;13.85;;;;;;;16.51;49.63;93652.81;4900797;29;20059;-90
2023/04/30 07:19:14;;;;;;;18.00;13.27;;;;;;;16.56;49.58;93660.25;4916514;29;20152;-91
2023/04/30 07:21:40;;;;;;;20.85;13.98;;;;;;;16.53;49.98;93652.31;4918375;29;20054;-91
2023/04/30 07:24:05;;;;;;;20.08;13.85;;;;;;;16.52;49.69;93657.03;4917662;29;20046;-91
2023/04/30 07:26:30;;;;;;;14.98;13.05;;;;;;;16.58;49.92;93657.03;4933599;29;20485;-90
2023/04/30 07:28:56;;;;;;;15.15;12.93;;;;;;;16.57;49.61;93658.28;4932197;29;20501;-90
2023/04/30 07:31:21;;;;;;;15.95;12.70;;;;;;;16.51;49.66;93661.00;4917586;29;20043;-89
2023/04/30 07:33:49;;;;;;;19.40;14.05;;;;;;;16.54;49.96;93657.28;4933674;29;20047;-90
2023/04/30 07:36:14;;;;;;;18.38;13.38;;;;;;;16.56;49.83;93662.25;4933452;29;20048;-90
2023/04/30 07:38:40;;;;;;;18.95;13.02;;;;;;;16.60;49.73;93666.22;4949288;29;20050;-90
2023/04/30 07:41:05;;;;;;;19.35;13.27;;;;;;;16.62;49.91;93657.56;4924833;29;20039;-88
2023/04/30 07:43:30;;;;;;;16.38;12.43;;;;;;;16.57;49.77;93653.56;4933317;29;20052;-91
2023/04/30 07:45:56;;;;;;;17.38;13.20;;;;;;;16.58;49.43;93657.78;4933803;28;20047;-88
2023/04/30 07:48:22;;;;;;;18.10;12.95;;;;;;;16.59;49.58;93653.81;4933284;28;20113;-85
2023/04/30 07:50:47;;;;;;;17.17;14.05;;;;;;;16.62;49.39;93657.56;4892863;29;20050;-89
2023/04/30 07:53:12;;;;;;;15.60;12.55;;;;;;;16.65;49.47;93664.78;4911040;29;20046;-85
2023/04/30 07:55:38;;;;;;;18.55;13.65;;;;;;;16.61;49.45;93664.25;4911553;29;20050;-90
2023/04/30 07:58:03;;;;;;;18.50;13.88;;;;;;;16.61;49.47;93653.34;4898585;29;20046;-90
2023/04/30 08:00:30;;;;;;;15.52;12.90;;;;;;;16.64;49.41;93655.09;4904515;29;20046;-85
2023/04/30 08:02:55;;;;;;;18.13;12.80;;;;;;;16.62;49.20;93654.81;4907119;29;20127;-89
2023/04/30 08:05:21;;;;;;;18.88;12.60;;;;;;;16.64;49.30;93664.03;4903419;29;20130;-86
2023/04/30 08:07:46;;;;;;;14.68;12.15;;;;;;;16.65;49.31;93664.78;4912288;29;20042;-87
2023/04/30 08:10:11;;;;;;;14.48;11.43;;;;;;;16.73;49.52;93661.06;4918142;29;20050;-91
2023/04/30 08:12:37;;;;;;;16.63;12.27;;;;;;;16.72;49.39;93670.50;4909766;29;20046;-91
2023/04/30 08:15:04;;;;;;;16.30;12.30;;;;;;;16.75;49.41;93663.31;4912785;29;20043;-87
2023/04/30 08:17:30;;;;;;;19.63;13.27;;;;;;;16.74;48.98;93668.03;4920740;29;20040;-91
2023/04/30 08:19:55;;;;;;;17.90;13.10;;;;;;;16.73;49.41;93672.00;4907678;29;20038;-90
2023/04/30 08:22:28;;;;;;;16.45;12.55;;;;;;;16.72;49.70;93669.75;4914914;29;20043;-92
2023/04/30 08:24:54;;;;;;;16.23;12.68;;;;;;;16.75;49.51;93674.22;4909613;29;20123;-91
2023/04/30 08:27:20;;;;;;;14.32;11.48;;;;;;;16.86;49.23;93674.25;4924079;29;20537;-91
2023/04/30 08:29:45;;;;;;;14.57;11.63;;;;;;;16.77;49.53;93674.47;4931795;29;20043;-91
2023/04/30 08:32:11;;;;;;;16.98;11.88;;;;;;;16.75;49.16;93663.31;4912502;29;20059;-90
2023/04/30 08:34:36;;;;;;;18.92;12.43;;;;;;;16.76;49.43;93665.53;4918706;29;20058;-89
2023/04/30 08:37:02;;;;;;;16.83;11.77;;;;;;;16.76;48.97;93670.25;4931454;29;20072;-90
2023/04/30 08:39:27;;;;;;;16.98;12.00;;;;;;;16.83;49.39;93666.31;4924136;29;20118;-89
2023/04/30 08:41:56;;;;;;;17.77;12.23;;;;;;;16.75;49.16;93672.25;4928759;29;20509;-89
2023/04/30 08:44:24;;;;;;;18.40;11.18;;;;;;;16.76;49.03;93665.53;4946063;28;20058;-90
2023/04/30 08:46:53;;;;;;;15.95;11.88;;;;;;;16.75;49.23;93660.56;4916149;29;20465;-91
2023/04/30 08:49:20;;;;;;;18.70;10.88;;;;;;;16.76;49.31;93673.00;4914677;29;20046;-91
2023/04/30 08:51:45;;;;;;;15.68;12.02;;;;;;;16.77;49.17;93666.28;4925200;29;20120;-91
2023/04/30 08:54:11;;;;;;;17.45;12.38;;;;;;;16.76;49.38;93673.00;4914940;29;20149;-90
2023/04/30 08:56:37;;;;;;;16.38;11.50;;;;;;;16.75;49.01;93679.69;4909310;29;20044;-90
2023/04/30 08:59:02;;;;;;;15.43;11.27;;;;;;;16.81;49.24;93674.25;4922367;29;20054;-89
2023/04/30 09:01:28;;;;;;;15.40;12.35;;;;;;;16.76;49.21;93679.19;4918427;29;20043;-92
2023/04/30 09:03:54;;;;;;;13.55;11.07;;;;;;;16.79;49.32;93675.47;4914989;29;20046;-89
2023/04/30 09:06:19;;;;;;;16.45;11.90;;;;;;;16.84;49.05;93676.00;4933054;29;20032;-90
2023/04/30 09:08:46;;;;;;;16.05;10.10;;;;;;;16.83;49.33;93674.50;4918496;29;20043;-90
2023/04/30 09:11:27;;;;;;;14.40;11.50;;;;;;;16.79;49.22;93682.94;4933068;29;20074;-91
2023/04/30 09:13:56;;;;;;;14.45;11.45;;;;;;;16.79;49.14;93685.66;4933353;29;20043;-88
2023/04/30 09:16:21;;;;;;;16.20;11.88;;;;;;;16.79;49.15;93677.47;4912098;29;20035;-87
2023/04/30 09:18:47;;;;;;;18.20;11.45;;;;;;;16.83;48.47;93688.16;4909636;29;20070;-90
2023/04/30 09:21:12;;;;;;;15.88;11.48;;;;;;;16.79;49.12;93693.84;4901933;29;20538;-88
2023/04/30 09:23:53;;;;;;;17.38;10.80;;;;;;;16.78;49.53;93681.44;4927566;29;20070;-87
2023/04/30 09:26:20;;;;;;;14.68;10.63;;;;;;;16.77;49.01;93680.69;4891560;29;20040;-90
2023/04/30 09:28:57;;;;;;;14.50;11.35;;;;;;;16.75;49.30;93679.69;4912411;29;20039;-87
2023/04/30 09:31:23;;;;;;;15.27;11.13;;;;;;;16.74;49.15;93676.22;4927086;28;21164;-90
2023/04/30 09:33:48;;;;;;;12.63;10.20;;;;;;;16.78;48.93;93681.44;4914709;29;20134;-89
2023/04/30 09:36:14;;;;;;;14.77;11.38;;;;;;;16.78;49.03;93675.97;4906776;29;20031;-91
2023/04/30 09:38:39;;;;;;;17.90;11.15;;;;;;;16.79;48.87;93670.03;4918911;29;20046;-90
2023/04/30 09:41:07;;;;;;;13.07;10.15;;;;;;;16.79;49.33;93670.03;4931193;29;20059;-89
2023/04/30 09:43:35;;;;;;;13.50;10.10;;;;;;;16.79;48.94;93670.03;4935511;29;20047;-89
2023/04/30 09:46:02;;;;;;;12.32;10.43;;;;;;;16.81;49.31;93668.78;4934342;29;20051;-90
2023/04/30 09:48:28;;;;;;;14.00;10.02;;;;;;;16.79;49.02;93678.22;4928861;29;20043;-89
2023/04/30 09:50:53;;;;;;;13.15;10.70;;;;;;;16.76;49.07;93678.44;4927806;29;20051;-89
2023/04/30 09:53:18;;;;;;;13.60;10.52;;;;;;;16.81;49.04;93685.16;4899701;29;20439;-90
2023/04/30 09:55:46;;;;;;;13.60;11.02;;;;;;;16.83;48.84;93674.50;4900154;29;20036;-90
2023/04/30 09:58:12;;;;;;;13.13;9.77;;;;;;;16.81;49.11;93677.72;4899779;29;20059;-89
2023/04/30 10:00:38;;;;;;;13.07;10.70;;;;;;;16.81;49.19;93682.44;4913310;29;20040;-91
2023/04/30 10:03:07;;;;;;;13.05;11.23;;;;;;;16.84;49.02;93676.00;4916821;29;20040;-89
2023/04/30 10:05:41;;;;;;;41.95;28.80;;;;;;;16.81;48.90;93683.19;4892359;29;20040;-88
2023/04/30 10:08:11;;;;;;;24.42;19.27;;;;;;;16.84;48.85;93682.19;4915356;29;20047;-90
2023/04/30 10:10:37;;;;;;;38.50;27.63;;;;;;;16.81;48.60;93661.34;4909137;29;20068;-90
2023/04/30 10:13:03;;;;;;;24.02;16.83;;;;;;;16.79;48.91;93664.56;4909278;29;20044;-88
2023/04/30 10:15:38;;;;;;;14.48;11.10;;;;;;;16.83;48.71;93658.13;4934103;29;20135;-87
2023/04/30 10:18:10;;;;;;;10.90;9.38;;;;;;;16.86;48.88;93660.59;4896909;29;20044;-88
2023/04/30 10:20:37;;;;;;;11.75;9.73;;;;;;;16.82;49.16;93659.34;4909841;29;20357;-90
2023/04/30 10:23:02;;;;;;;11.50;9.98;;;;;;;16.83;48.92;93656.13;4933826;29;20035;-89
2023/04/30 10:25:28;;;;;;;13.52;9.10;;;;;;;16.83;48.96;93642.47;4951268;29;20512;-90
2023/04/30 10:27:53;;;;;;;12.25;9.80;;;;;;;16.84;48.77;93651.41;4950365;29;20035;-89
2023/04/30 10:30:19;;;;;;;14.43;9.45;;;;;;;16.87;48.86;93648.44;4917427;29;20035;-91
2023/04/30 10:32:52;;;;;;;11.95;9.52;;;;;;;16.88;48.84;93641.75;4918469;29;20047;-90
2023/04/30 10:35:25;;;;;;;13.65;9.15;;;;;;;16.89;49.26;93645.94;4899426;29;20066;-90
2023/04/30 10:38:04;;;;;;;12.02;9.80;;;;;;;16.84;48.91;93648.69;4897250;29;20127;-90
2023/04/30 10:40:35;;;;;;;10.98;9.18;;;;;;;16.87;49.18;93634.06;4885335;29;20052;-90
2023/04/30 10:43:00;;;;;;;13.02;10.23;;;;;;;16.88;49.08;93644.47;4896269;29;20048;-91
2023/04/30 10:45:36;;;;;;;11.80;8.55;;;;;;;16.88;48.87;93646.47;4892184;29;20422;-89
2023/04/30 10:48:02;;;;;;;10.77;9.23;;;;;;;16.86;49.32;93640.75;4907053;29;20086;-91
2023/04/30 10:50:28;;;;;;;11.60;8.77;;;;;;;16.88;48.80;93647.22;4911896;29;20052;-90
2023/04/30 10:53:02;;;;;;;10.05;8.98;;;;;;;16.87;48.54;93643.00;4895788;29;20052;-87
2023/04/30 10:55:28;;;;;;;14.02;10.57;;;;;;;16.86;48.96;93644.22;4872280;29;20665;-89
2023/04/30 10:57:54;;;;;;;13.15;9.63;;;;;;;16.86;48.94;93638.03;4842332;29;20089;-91
2023/04/30 11:00:27;;;;;;;15.75;10.32;;;;;;;16.83;48.85;93639.75;4871646;29;20061;-90
2023/04/30 11:02:57;;;;;;;13.23;9.27;;;;;;;16.88;48.73;93643.75;4872430;29;20041;-89
2023/04/30 11:05:38;;;;;;;12.68;9.55;;;;;;;16.86;49.28;93638.75;4853242;29;20060;-91
2023/04/30 11:08:04;;;;;;;11.82;9.60;;;;;;;16.90;48.62;93641.22;4856687;29;20045;-90
2023/04/30 11:10:33;;;;;;;12.48;10.18;;;;;;;16.93;48.60;93637.50;4872301;29;20127;-91
2023/04/30 11:13:02;;;;;;;13.15;9.38;;;;;;;16.97;48.57;93633.31;4872386;29;20061;-91
2023/04/30 11:15:41;;;;;;;13.88;9.98;;;;;;;16.93;48.43;93635.53;4871935;29;20185;-89